sensor_id;sensor_type;location;lat;lon;timestamp;pressure;altitude;pressure_sealevel;temperature;humidity
38716;BME280;24833;49.324;8.694;2023-01-09T00:01:19;98054.91;;;8.03;93.88
38716;BME280;24833;49.324;8.694;2023-01-09T00:03:47;98047.13;;;8.02;94.30
38716;BME280;24833;49.324;8.694;2023-01-09T00:06:14;98041.00;;;8.01;93.80
38716;BME280;24833;49.324;8.694;2023-01-09T00:08:41;98037.53;;;8.01;94.43
38716;BME280;24833;49.324;8.694;2023-01-09T00:11:08;98042.84;;;8.01;94.56
38716;BME280;24833;49.324;8.694;2023-01-09T00:13:36;98034.88;;;8.01;94.13
38716;BME280;24833;49.324;8.694;2023-01-09T00:16:07;98032.22;;;8.01;94.12
38716;BME280;24833;49.324;8.694;2023-01-09T00:18:35;98027.94;;;8.00;94.07
38716;BME280;24833;49.324;8.694;2023-01-09T00:21:05;98022.63;;;8.00;94.44
38716;BME280;24833;49.324;8.694;2023-01-09T00:23:33;98015.47;;;8.00;94.38
38716;BME280;24833;49.324;8.694;2023-01-09T00:26:26;98014.66;;;8.00;94.55
38716;BME280;24833;49.324;8.694;2023-01-09T00:28:53;98010.97;;;8.01;94.45
38716;BME280;24833;49.324;8.694;2023-01-09T00:31:22;98010.97;;;8.01;94.71
38716;BME280;24833;49.324;8.694;2023-01-09T00:34:04;98001.94;;;8.02;94.81
38716;BME280;24833;49.324;8.694;2023-01-09T00:36:32;97999.53;;;8.00;94.71
38716;BME280;24833;49.324;8.694;2023-01-09T00:38:59;97999.53;;;8.00;95.31
38716;BME280;24833;49.324;8.694;2023-01-09T00:41:33;97995.81;;;8.01;95.11
38716;BME280;24833;49.324;8.694;2023-01-09T00:44:08;97999.28;;;8.02;94.90
38716;BME280;24833;49.324;8.694;2023-01-09T00:46:40;97996.63;;;8.02;94.82
38716;BME280;24833;49.324;8.694;2023-01-09T00:49:10;97996.63;;;8.02;94.71
38716;BME280;24833;49.324;8.694;2023-01-09T00:51:39;97993.97;;;8.02;94.90
38716;BME280;24833;49.324;8.694;2023-01-09T00:54:09;97995.63;;;8.03;95.03
38716;BME280;24833;49.324;8.694;2023-01-09T00:56:37;98001.75;;;8.03;94.97
38716;BME280;24833;49.324;8.694;2023-01-09T00:59:05;98005.22;;;8.04;94.93
38716;BME280;24833;49.324;8.694;2023-01-09T01:01:33;98002.31;;;8.05;94.65
38716;BME280;24833;49.324;8.694;2023-01-09T01:04:00;98000.47;;;8.06;95.02
38716;BME280;24833;49.324;8.694;2023-01-09T01:06:47;98010.06;;;8.07;94.74
38716;BME280;24833;49.324;8.694;2023-01-09T01:09:32;98008.44;;;8.06;94.54
38716;BME280;24833;49.324;8.694;2023-01-09T01:12:00;98001.28;;;8.06;94.40
38716;BME280;24833;49.324;8.694;2023-01-09T01:14:34;97994.94;;;8.07;94.49
38716;BME280;24833;49.324;8.694;2023-01-09T01:17:02;97985.09;;;8.08;94.24
38716;BME280;24833;49.324;8.694;2023-01-09T01:19:29;97997.38;;;8.09;94.59
38716;BME280;24833;49.324;8.694;2023-01-09T01:21:56;97988.38;;;8.10;93.94
38716;BME280;24833;49.324;8.694;2023-01-09T01:24:23;98000.63;;;8.11;93.93
38716;BME280;24833;49.324;8.694;2023-01-09T01:26:50;98000.63;;;8.11;93.92
38716;BME280;24833;49.324;8.694;2023-01-09T01:29:17;98002.25;;;8.12;93.34
38716;BME280;24833;49.324;8.694;2023-01-09T01:31:44;97997.75;;;8.12;93.61
38716;BME280;24833;49.324;8.694;2023-01-09T01:34:11;98000.41;;;8.12;93.31
38716;BME280;24833;49.324;8.694;2023-01-09T01:36:38;98006.53;;;8.13;93.00
38716;BME280;24833;49.324;8.694;2023-01-09T01:39:05;98015.31;;;8.13;92.70
38716;BME280;24833;49.324;8.694;2023-01-09T01:41:32;98007.09;;;8.15;92.54
38716;BME280;24833;49.324;8.694;2023-01-09T01:44:03;98012.41;;;8.15;92.98
38716;BME280;24833;49.324;8.694;2023-01-09T01:46:32;98023.06;;;8.15;92.95
38716;BME280;24833;49.324;8.694;2023-01-09T01:49:12;98017.72;;;8.15;92.71
38716;BME280;24833;49.324;8.694;2023-01-09T01:51:44;98019.59;;;8.14;92.77
38716;BME280;24833;49.324;8.694;2023-01-09T01:54:19;98015.06;;;8.15;92.89
38716;BME280;24833;49.324;8.694;2023-01-09T01:56:52;98014.25;;;8.14;92.94
38716;BME280;24833;49.324;8.694;2023-01-09T01:59:27;98020.41;;;8.15;92.51
38716;BME280;24833;49.324;8.694;2023-01-09T02:02:00;98028.38;;;8.15;93.05
38716;BME280;24833;49.324;8.694;2023-01-09T02:04:29;98023.88;;;8.15;92.76
38716;BME280;24833;49.324;8.694;2023-01-09T02:07:03;98031.03;;;8.15;93.04
38716;BME280;24833;49.324;8.694;2023-01-09T02:09:31;98023.88;;;8.15;93.19
38716;BME280;24833;49.324;8.694;2023-01-09T02:11:58;98031.03;;;8.15;92.85
38716;BME280;24833;49.324;8.694;2023-01-09T02:14:29;98028.38;;;8.15;92.99
38716;BME280;24833;49.324;8.694;2023-01-09T02:17:18;98030.22;;;8.14;92.49
38716;BME280;24833;49.324;8.694;2023-01-09T02:29:29;98004.31;;;8.10;92.14
38716;BME280;24833;49.324;8.694;2023-01-09T02:34:46;97965.94;;;8.06;91.61
38716;BME280;24833;49.324;8.694;2023-01-09T02:37:36;97997.00;;;8.05;91.44
38716;BME280;24833;49.324;8.694;2023-01-09T02:40:37;98025.66;;;8.03;92.08
38716;BME280;24833;49.324;8.694;2023-01-09T02:43:06;98019.75;;;8.01;92.05
38716;BME280;24833;49.324;8.694;2023-01-09T02:45:33;98027.94;;;8.00;92.17
38716;BME280;24833;49.324;8.694;2023-01-09T02:48:00;98025.28;;;8.00;92.16
38716;BME280;24833;49.324;8.694;2023-01-09T02:54:03;98011.41;;;7.98;92.28
38716;BME280;24833;49.324;8.694;2023-01-09T03:00:03;98025.75;;;7.97;92.52
38716;BME280;24833;49.324;8.694;2023-01-09T03:08:13;98036.00;;;7.93;92.64
38716;BME280;24833;49.324;8.694;2023-01-09T03:13:23;98039.47;;;7.93;92.60
38716;BME280;24833;49.324;8.694;2023-01-09T03:15:53;98055.41;;;7.93;92.84
38716;BME280;24833;49.324;8.694;2023-01-09T03:18:25;98058.88;;;7.94;92.71
38716;BME280;24833;49.324;8.694;2023-01-09T03:20:54;98054.38;;;7.95;92.76
38716;BME280;24833;49.324;8.694;2023-01-09T03:23:21;98056.81;;;7.96;93.15
38716;BME280;24833;49.324;8.694;2023-01-09T03:25:48;98067.47;;;7.96;93.36
38716;BME280;24833;49.324;8.694;2023-01-09T03:28:26;98077.25;;;7.96;92.66
38716;BME280;24833;49.324;8.694;2023-01-09T03:30:53;98078.91;;;7.97;92.83
38716;BME280;24833;49.324;8.694;2023-01-09T03:33:20;98086.88;;;7.97;93.55
38716;BME280;24833;49.324;8.694;2023-01-09T03:35:47;98103.81;;;7.96;92.92
38716;BME280;24833;49.324;8.694;2023-01-09T03:38:14;98100.59;;;7.93;93.46
38716;BME280;24833;49.324;8.694;2023-01-09T03:40:41;98114.31;;;7.90;93.28
38716;BME280;24833;49.324;8.694;2023-01-09T03:43:11;98121.09;;;7.86;93.71
38716;BME280;24833;49.324;8.694;2023-01-09T03:45:38;98121.56;;;7.83;93.13
38716;BME280;24833;49.324;8.694;2023-01-09T03:48:05;98136.28;;;7.79;93.26
38716;BME280;24833;49.324;8.694;2023-01-09T03:50:32;98141.03;;;7.77;93.21
38716;BME280;24833;49.324;8.694;2023-01-09T03:52:59;98131.84;;;7.73;92.54
38716;BME280;24833;49.324;8.694;2023-01-09T03:55:27;98136.00;;;7.69;92.35
38716;BME280;24833;49.324;8.694;2023-01-09T03:57:54;98141.72;;;7.66;92.77
38716;BME280;24833;49.324;8.694;2023-01-09T04:00:21;98150.31;;;7.61;92.57
38716;BME280;24833;49.324;8.694;2023-01-09T04:02:48;98157.13;;;7.57;92.33
38716;BME280;24833;49.324;8.694;2023-01-09T04:05:15;98156.94;;;7.52;92.76
38716;BME280;24833;49.324;8.694;2023-01-09T04:07:42;98167.41;;;7.47;92.49
38716;BME280;24833;49.324;8.694;2023-01-09T04:10:09;98187.47;;;7.43;92.38
38716;BME280;24833;49.324;8.694;2023-01-09T04:12:36;98196.06;;;7.38;92.21
38716;BME280;24833;49.324;8.694;2023-01-09T04:15:04;98204.44;;;7.35;92.46
38716;BME280;24833;49.324;8.694;2023-01-09T04:17:31;98217.13;;;7.33;92.34
38716;BME280;24833;49.324;8.694;2023-01-09T04:19:58;98231.88;;;7.29;92.80
38716;BME280;24833;49.324;8.694;2023-01-09T04:22:25;98232.28;;;7.26;92.91
38716;BME280;24833;49.324;8.694;2023-01-09T04:24:53;98240.69;;;7.23;92.44
38716;BME280;24833;49.324;8.694;2023-01-09T04:27:20;98243.53;;;7.22;92.99
38716;BME280;24833;49.324;8.694;2023-01-09T04:29:47;98248.47;;;7.18;93.04
38716;BME280;24833;49.324;8.694;2023-01-09T04:32:14;98250.72;;;7.15;92.68
38716;BME280;24833;49.324;8.694;2023-01-09T04:34:41;98258.06;;;7.13;92.35
38716;BME280;24833;49.324;8.694;2023-01-09T04:37:08;98263.59;;;7.11;92.69
38716;BME280;24833;49.324;8.694;2023-01-09T04:39:35;98273.81;;;7.07;92.34
38716;BME280;24833;49.324;8.694;2023-01-09T04:42:03;98269.75;;;7.05;92.39
38716;BME280;24833;49.324;8.694;2023-01-09T04:44:30;98278.97;;;7.02;92.50
38716;BME280;24833;49.324;8.694;2023-01-09T04:46:57;98285.25;;;7.01;92.42
38716;BME280;24833;49.324;8.694;2023-01-09T04:49:26;98292.84;;;6.98;92.13
38716;BME280;24833;49.324;8.694;2023-01-09T04:51:53;98296.53;;;6.97;92.16
38716;BME280;24833;49.324;8.694;2023-01-09T04:54:20;98304.50;;;6.97;92.47
38716;BME280;24833;49.324;8.694;2023-01-09T04:56:48;98314.47;;;6.95;92.29
38716;BME280;24833;49.324;8.694;2023-01-09T04:59:15;98311.22;;;6.93;92.89
38716;BME280;24833;49.324;8.694;2023-01-09T05:01:42;98316.75;;;6.91;92.85
38716;BME280;24833;49.324;8.694;2023-01-09T05:04:10;98319.63;;;6.90;92.74
38716;BME280;24833;49.324;8.694;2023-01-09T05:06:37;98314.50;;;6.88;92.53
38716;BME280;24833;49.324;8.694;2023-01-09T05:09:04;98324.28;;;6.88;92.51
38716;BME280;24833;49.324;8.694;2023-01-09T05:11:31;98331.66;;;6.86;92.40
38716;BME280;24833;49.324;8.694;2023-01-09T05:13:58;98332.91;;;6.83;92.37
38716;BME280;24833;49.324;8.694;2023-01-09T05:16:25;98330.63;;;6.80;92.32
38716;BME280;24833;49.324;8.694;2023-01-09T05:18:52;98346.16;;;6.76;92.36
38716;BME280;24833;49.324;8.694;2023-01-09T05:21:23;98350.03;;;6.74;92.13
38716;BME280;24833;49.324;8.694;2023-01-09T05:23:50;98352.91;;;6.72;92.31
38716;BME280;24833;49.324;8.694;2023-01-09T05:26:20;98365.94;;;6.67;92.61
38716;BME280;24833;49.324;8.694;2023-01-09T05:28:51;98370.66;;;6.65;92.53
38716;BME280;24833;49.324;8.694;2023-01-09T05:31:19;98373.72;;;6.62;92.24
38716;BME280;24833;49.324;8.694;2023-01-09T05:33:46;98376.56;;;6.61;92.02
38716;BME280;24833;49.324;8.694;2023-01-09T05:36:13;98373.53;;;6.57;92.38
38716;BME280;24833;49.324;8.694;2023-01-09T05:38:41;98374.53;;;6.56;92.01
38716;BME280;24833;49.324;8.694;2023-01-09T05:41:08;98381.88;;;6.54;92.29
38716;BME280;24833;49.324;8.694;2023-01-09T05:43:35;98377.81;;;6.51;92.47
38716;BME280;24833;49.324;8.694;2023-01-09T05:46:02;98378.00;;;6.50;92.37
38716;BME280;24833;49.324;8.694;2023-01-09T05:48:29;98387.38;;;6.46;92.24
38716;BME280;24833;49.324;8.694;2023-01-09T05:50:56;98392.09;;;6.44;92.39
38716;BME280;24833;49.324;8.694;2023-01-09T05:53:23;98406.53;;;6.41;92.03
38716;BME280;24833;49.324;8.694;2023-01-09T05:55:50;98394.50;;;6.39;92.20
38716;BME280;24833;49.324;8.694;2023-01-09T05:58:17;98411.66;;;6.36;92.13
38716;BME280;24833;49.324;8.694;2023-01-09T06:00:43;98409.19;;;6.35;92.47
38716;BME280;24833;49.324;8.694;2023-01-09T06:03:10;98409.59;;;6.32;91.88
38716;BME280;24833;49.324;8.694;2023-01-09T06:05:37;98417.75;;;6.30;92.41
38716;BME280;24833;49.324;8.694;2023-01-09T06:08:04;98433.03;;;6.28;91.82
38716;BME280;24833;49.324;8.694;2023-01-09T06:10:31;98439.34;;;6.27;92.14
38716;BME280;24833;49.324;8.694;2023-01-09T06:12:58;98441.41;;;6.25;92.42
38716;BME280;24833;49.324;8.694;2023-01-09T06:15:25;98447.50;;;6.25;92.45
38716;BME280;24833;49.324;8.694;2023-01-09T06:17:52;98445.88;;;6.24;92.56
38716;BME280;24833;49.324;8.694;2023-01-09T06:20:19;98443.22;;;6.24;92.22
38716;BME280;24833;49.324;8.694;2023-01-09T06:22:46;98442.22;;;6.25;92.28
38716;BME280;24833;49.324;8.694;2023-01-09T06:25:13;98447.50;;;6.25;92.38
38716;BME280;24833;49.324;8.694;2023-01-09T06:27:40;98444.88;;;6.25;92.27
38716;BME280;24833;49.324;8.694;2023-01-09T06:30:08;98461.78;;;6.24;92.39
38716;BME280;24833;49.324;8.694;2023-01-09T06:32:35;98460.75;;;6.25;92.46
38716;BME280;24833;49.324;8.694;2023-01-09T06:35:02;98453.84;;;6.24;92.21
38716;BME280;24833;49.324;8.694;2023-01-09T06:37:29;98460.97;;;6.24;92.28
38716;BME280;24833;49.324;8.694;2023-01-09T06:39:56;98462.59;;;6.25;91.93
38716;BME280;24833;49.324;8.694;2023-01-09T06:42:23;98465.47;;;6.23;91.77
38716;BME280;24833;49.324;8.694;2023-01-09T06:44:51;98469.75;;;6.24;91.88
38716;BME280;24833;49.324;8.694;2023-01-09T06:47:18;98471.56;;;6.24;92.15
38716;BME280;24833;49.324;8.694;2023-01-09T06:49:45;98481.34;;;6.23;92.00
38716;BME280;24833;49.324;8.694;2023-01-09T06:52:12;98476.88;;;6.24;92.08
38716;BME280;24833;49.324;8.694;2023-01-09T06:54:39;98468.91;;;6.24;92.08
38716;BME280;24833;49.324;8.694;2023-01-09T06:57:06;98476.06;;;6.23;91.79
38716;BME280;24833;49.324;8.694;2023-01-09T06:59:33;98465.47;;;6.23;92.01
38716;BME280;24833;49.324;8.694;2023-01-09T07:02:00;98462.81;;;6.23;91.55
38716;BME280;24833;49.324;8.694;2023-01-09T07:04:27;98454.84;;;6.23;91.95
38716;BME280;24833;49.324;8.694;2023-01-09T07:06:54;98456.47;;;6.24;91.70
38716;BME280;24833;49.324;8.694;2023-01-09T07:09:21;98455.47;;;6.25;91.21
38716;BME280;24833;49.324;8.694;2023-01-09T07:11:48;98452.00;;;6.25;91.53
38716;BME280;24833;49.324;8.694;2023-01-09T07:14:15;98452.22;;;6.23;91.30
38716;BME280;24833;49.324;8.694;2023-01-09T07:16:42;98458.94;;;6.26;91.46
38716;BME280;24833;49.324;8.694;2023-01-09T07:19:09;98448.53;;;6.24;91.46
38716;BME280;24833;49.324;8.694;2023-01-09T07:21:36;98444.03;;;6.25;91.40
38716;BME280;24833;49.324;8.694;2023-01-09T07:24:03;98458.13;;;6.25;91.29
38716;BME280;24833;49.324;8.694;2023-01-09T07:26:30;98461.78;;;6.24;91.45
38716;BME280;24833;49.324;8.694;2023-01-09T07:28:56;98460.97;;;6.24;91.25
38716;BME280;24833;49.324;8.694;2023-01-09T07:31:23;98464.44;;;6.24;91.45
38716;BME280;24833;49.324;8.694;2023-01-09T07:33:50;98470.56;;;6.25;91.41
38716;BME280;24833;49.324;8.694;2023-01-09T07:36:17;98474.22;;;6.24;91.31
38716;BME280;24833;49.324;8.694;2023-01-09T07:38:44;98477.69;;;6.24;91.11
38716;BME280;24833;49.324;8.694;2023-01-09T07:41:11;98460.97;;;6.24;91.35
38716;BME280;24833;49.324;8.694;2023-01-09T07:43:39;98458.31;;;6.24;91.02
38716;BME280;24833;49.324;8.694;2023-01-09T07:46:05;98466.28;;;6.24;91.13
38716;BME280;24833;49.324;8.694;2023-01-09T07:48:32;98467.09;;;6.24;90.92
38716;BME280;24833;49.324;8.694;2023-01-09T07:50:59;98481.97;;;6.25;91.10
38716;BME280;24833;49.324;8.694;2023-01-09T07:53:27;98481.34;;;6.23;91.30
38716;BME280;24833;49.324;8.694;2023-01-09T07:55:54;98480.53;;;6.23;90.64
38716;BME280;24833;49.324;8.694;2023-01-09T07:58:21;98486.66;;;6.23;90.64
38716;BME280;24833;49.324;8.694;2023-01-09T08:00:49;98491.97;;;6.23;90.72
38716;BME280;24833;49.324;8.694;2023-01-09T08:03:16;98491.97;;;6.23;90.76
38716;BME280;24833;49.324;8.694;2023-01-09T08:05:44;98495.00;;;6.20;90.69
38716;BME280;24833;49.324;8.694;2023-01-09T08:08:11;98493.97;;;6.21;91.08
38716;BME280;24833;49.324;8.694;2023-01-09T08:10:40;98498.47;;;6.21;90.49
38716;BME280;24833;49.324;8.694;2023-01-09T08:13:07;98515.59;;;6.18;90.39
38716;BME280;24833;49.324;8.694;2023-01-09T08:15:34;98498.88;;;6.18;90.68
38716;BME280;24833;49.324;8.694;2023-01-09T08:18:01;98497.25;;;6.17;90.82
38716;BME280;24833;49.324;8.694;2023-01-09T08:20:28;98491.75;;;6.18;90.75
38716;BME280;24833;49.324;8.694;2023-01-09T08:22:55;98501.53;;;6.18;90.46
38716;BME280;24833;49.324;8.694;2023-01-09T08:25:22;98503.16;;;6.19;90.67
38716;BME280;24833;49.324;8.694;2023-01-09T08:27:50;98505.81;;;6.19;90.57
38716;BME280;24833;49.324;8.694;2023-01-09T08:30:17;98509.06;;;6.21;90.42
38716;BME280;24833;49.324;8.694;2023-01-09T08:32:49;98501.13;;;6.21;90.65
38716;BME280;24833;49.324;8.694;2023-01-09T08:35:17;98500.94;;;6.22;90.79
38716;BME280;24833;49.324;8.694;2023-01-09T08:37:46;98510.50;;;6.23;90.63
38716;BME280;24833;49.324;8.694;2023-01-09T08:40:15;98513.78;;;6.25;90.81
38716;BME280;24833;49.324;8.694;2023-01-09T08:42:42;98514.38;;;6.27;90.76
38716;BME280;24833;49.324;8.694;2023-01-09T08:45:28;98516.66;;;6.31;90.34
38716;BME280;24833;49.324;8.694;2023-01-09T08:48:14;98506.88;;;6.31;90.60
38716;BME280;24833;49.324;8.694;2023-01-09T08:50:43;98522.56;;;6.33;90.58
38716;BME280;24833;49.324;8.694;2023-01-09T08:53:10;98523.81;;;6.37;90.44
38716;BME280;24833;49.324;8.694;2023-01-09T08:55:37;98527.06;;;6.39;90.61
38716;BME280;24833;49.324;8.694;2023-01-09T08:58:04;98537.25;;;6.42;90.66
38716;BME280;24833;49.324;8.694;2023-01-09T09:00:31;98537.91;;;6.44;90.69
38716;BME280;24833;49.324;8.694;2023-01-09T09:02:59;98544.41;;;6.48;90.38
38716;BME280;24833;49.324;8.694;2023-01-09T09:05:28;98537.09;;;6.50;90.07
38716;BME280;24833;49.324;8.694;2023-01-09T09:07:56;98565.03;;;6.52;90.32
38716;BME280;24833;49.324;8.694;2023-01-09T09:10:28;98541.78;;;6.54;89.92
38716;BME280;24833;49.324;8.694;2023-01-09T09:12:57;98534.47;;;6.57;90.08
38716;BME280;24833;49.324;8.694;2023-01-09T09:15:25;98539.34;;;6.60;89.95
38716;BME280;24833;49.324;8.694;2023-01-09T09:18:02;98551.59;;;6.61;89.67
38716;BME280;24833;49.324;8.694;2023-01-09T09:20:33;98549.59;;;6.63;89.92
38716;BME280;24833;49.324;8.694;2023-01-09T09:23:01;98540.41;;;6.65;89.90
38716;BME280;24833;49.324;8.694;2023-01-09T09:25:28;98551.63;;;6.67;90.42
38716;BME280;24833;49.324;8.694;2023-01-09T09:27:55;98547.94;;;6.68;90.14
38716;BME280;24833;49.324;8.694;2023-01-09T09:30:23;98557.56;;;6.69;89.96
38716;BME280;24833;49.324;8.694;2023-01-09T09:32:50;98558.16;;;6.71;90.08
38716;BME280;24833;49.324;8.694;2023-01-09T09:35:18;98558.78;;;6.73;90.20
38716;BME280;24833;49.324;8.694;2023-01-09T09:37:58;98557.75;;;6.74;89.57
38716;BME280;24833;49.324;8.694;2023-01-09T09:43:55;98566.34;;;6.76;89.35
38716;BME280;24833;49.324;8.694;2023-01-09T09:47:17;98552.66;;;6.79;89.33
38716;BME280;24833;49.324;8.694;2023-01-09T09:50:14;98564.69;;;6.82;89.94
38716;BME280;24833;49.324;8.694;2023-01-09T09:55:40;98566.97;;;6.85;89.38
38716;BME280;24833;49.324;8.694;2023-01-09T10:01:04;98582.28;;;6.90;89.80
38716;BME280;24833;49.324;8.694;2023-01-09T10:03:46;98566.38;;;6.90;89.43
38716;BME280;24833;49.324;8.694;2023-01-09T10:09:41;98571.25;;;6.93;89.62
38716;BME280;24833;49.324;8.694;2023-01-09T10:12:31;98567.19;;;6.97;89.28
38716;BME280;24833;49.324;8.694;2023-01-09T10:15:08;98568.41;;;7.01;89.22
38716;BME280;24833;49.324;8.694;2023-01-09T10:18:41;98575.34;;;7.02;89.43
38716;BME280;24833;49.324;8.694;2023-01-09T10:21:05;98567.00;;;7.05;89.58
38716;BME280;24833;49.324;8.694;2023-01-09T10:23:55;98575.56;;;7.07;89.19
38716;BME280;24833;49.324;8.694;2023-01-09T10:26:40;98563.91;;;7.08;89.06
38716;BME280;24833;49.324;8.694;2023-01-09T10:29:32;98577.81;;;7.10;89.26
38716;BME280;24833;49.324;8.694;2023-01-09T10:38:03;98549.44;;;7.17;89.33
38716;BME280;24833;49.324;8.694;2023-01-09T10:40:38;98546.56;;;7.19;89.79
38716;BME280;24833;49.324;8.694;2023-01-09T10:45:52;98554.53;;;7.25;89.91
38716;BME280;24833;49.324;8.694;2023-01-09T10:48:37;98552.31;;;7.29;90.04
38716;BME280;24833;49.324;8.694;2023-01-09T10:51:22;98553.72;;;7.31;89.70
38716;BME280;24833;49.324;8.694;2023-01-09T10:53:54;98552.28;;;7.35;89.95
38716;BME280;24833;49.324;8.694;2023-01-09T10:56:32;98543.50;;;7.42;89.95
38716;BME280;24833;49.324;8.694;2023-01-09T10:59:02;98543.09;;;7.45;89.71
38716;BME280;24833;49.324;8.694;2023-01-09T11:01:36;98540.66;;;7.50;89.58
38716;BME280;24833;49.324;8.694;2023-01-09T11:04:29;98546.13;;;7.55;89.86
38716;BME280;24833;49.324;8.694;2023-01-09T11:07:06;98546.34;;;7.60;90.12
38716;BME280;24833;49.324;8.694;2023-01-09T11:09:58;98549.59;;;7.62;89.87
38716;BME280;24833;49.324;8.694;2023-01-09T11:12:29;98548.78;;;7.61;89.48
38716;BME280;24833;49.324;8.694;2023-01-09T11:17:42;98549.00;;;7.60;89.96
38716;BME280;24833;49.324;8.694;2023-01-09T11:22:52;98542.47;;;7.62;89.92
38716;BME280;24833;49.324;8.694;2023-01-09T11:25:22;98534.50;;;7.62;89.81
38716;BME280;24833;49.324;8.694;2023-01-09T11:28:05;98533.63;;;7.69;90.33
38716;BME280;24833;49.324;8.694;2023-01-09T11:30:37;98534.06;;;7.72;90.36
38716;BME280;24833;49.324;8.694;2023-01-09T11:33:40;98533.22;;;7.78;90.48
38716;BME280;24833;49.324;8.694;2023-01-09T11:36:14;98526.47;;;7.82;90.60
38716;BME280;24833;49.324;8.694;2023-01-09T11:38:54;98531.38;;;7.85;90.43
38716;BME280;24833;49.324;8.694;2023-01-09T11:41:32;98534.41;;;7.89;90.35
38716;BME280;24833;49.324;8.694;2023-01-09T11:44:02;98538.50;;;7.91;90.33
38716;BME280;24833;49.324;8.694;2023-01-09T11:46:39;98529.91;;;7.96;90.39
38716;BME280;24833;49.324;8.694;2023-01-09T11:49:29;98528.66;;;7.99;90.68
38716;BME280;24833;49.324;8.694;2023-01-09T11:52:19;98536.22;;;8.02;90.51
38716;BME280;24833;49.324;8.694;2023-01-09T11:54:59;98534.38;;;8.02;90.37
38716;BME280;24833;49.324;8.694;2023-01-09T11:57:30;98551.56;;;8.00;89.79
38716;BME280;24833;49.324;8.694;2023-01-09T12:00:03;98530.72;;;7.97;89.85
38716;BME280;24833;49.324;8.694;2023-01-09T12:03:38;98540.13;;;7.92;89.76
38716;BME280;24833;49.324;8.694;2023-01-09T12:06:30;98541.78;;;7.87;89.67
38716;BME280;24833;49.324;8.694;2023-01-09T12:09:05;98547.53;;;7.84;89.61
38716;BME280;24833;49.324;8.694;2023-01-09T12:15:11;98556.72;;;7.75;89.97
38716;BME280;24833;49.324;8.694;2023-01-09T12:21:18;98550.84;;;7.59;89.57
38716;BME280;24833;49.324;8.694;2023-01-09T12:24:32;98543.09;;;7.51;89.74
38716;BME280;24833;49.324;8.694;2023-01-09T12:27:23;98556.59;;;7.43;89.85
38716;BME280;24833;49.324;8.694;2023-01-09T12:30:15;98554.53;;;7.38;90.09
38716;BME280;24833;49.324;8.694;2023-01-09T12:39:05;98552.50;;;7.27;90.55
38716;BME280;24833;49.324;8.694;2023-01-09T12:41:59;98554.53;;;7.25;90.59
38716;BME280;24833;49.324;8.694;2023-01-09T12:45:24;98560.28;;;7.22;90.42
38716;BME280;24833;49.324;8.694;2023-01-09T12:48:08;98561.91;;;7.23;90.70
38716;BME280;24833;49.324;8.694;2023-01-09T12:51:10;98564.13;;;7.20;90.41
38716;BME280;24833;49.324;8.694;2023-01-09T12:56:47;98562.28;;;7.20;90.51
38716;BME280;24833;49.324;8.694;2023-01-09T13:02:33;98552.91;;;7.18;90.17
38716;BME280;24833;49.324;8.694;2023-01-09T13:05:12;98555.78;;;7.16;90.31
38716;BME280;24833;49.324;8.694;2023-01-09T13:07:47;98551.28;;;7.17;90.42
38716;BME280;24833;49.324;8.694;2023-01-09T13:12:47;98548.19;;;7.13;90.27
38716;BME280;24833;49.324;8.694;2023-01-09T13:15:32;98548.19;;;7.13;90.11
38716;BME280;24833;49.324;8.694;2023-01-09T13:18:13;98556.38;;;7.12;90.20
38716;BME280;24833;49.324;8.694;2023-01-09T13:20:49;98553.94;;;7.10;90.43
38716;BME280;24833;49.324;8.694;2023-01-09T13:26:09;98565.56;;;7.09;90.04
38716;BME280;24833;49.324;8.694;2023-01-09T13:28:53;98569.44;;;7.06;90.37
38716;BME280;24833;49.324;8.694;2023-01-09T13:31:46;98569.44;;;7.06;90.21
38716;BME280;24833;49.324;8.694;2023-01-09T13:34:20;98577.59;;;7.05;90.44
38716;BME280;24833;49.324;8.694;2023-01-09T13:36:51;98574.75;;;7.06;89.96
38716;BME280;24833;49.324;8.694;2023-01-09T13:39:27;98587.81;;;7.08;89.91
38716;BME280;24833;49.324;8.694;2023-01-09T13:42:02;98587.81;;;7.08;89.89
38716;BME280;24833;49.324;8.694;2023-01-09T13:44:53;98587.19;;;7.06;90.24
38716;BME280;24833;49.324;8.694;2023-01-09T13:47:26;98598.84;;;7.05;89.94
38716;BME280;24833;49.324;8.694;2023-01-09T13:52:37;98599.44;;;7.07;90.22
38716;BME280;24833;49.324;8.694;2023-01-09T13:57:42;98587.81;;;7.15;90.33
38716;BME280;24833;49.324;8.694;2023-01-09T14:08:20;98606.81;;;7.25;90.28
38716;BME280;24833;49.324;8.694;2023-01-09T14:10:51;98609.69;;;7.23;89.80
38716;BME280;24833;49.324;8.694;2023-01-09T14:13:31;98602.75;;;7.22;89.71
38716;BME280;24833;49.324;8.694;2023-01-09T14:16:17;98604.56;;;7.22;89.94
38716;BME280;24833;49.324;8.694;2023-01-09T14:19:34;98611.53;;;7.23;90.21
38716;BME280;24833;49.324;8.694;2023-01-09T14:22:05;98615.19;;;7.22;89.98
38716;BME280;24833;49.324;8.694;2023-01-09T14:24:43;98623.16;;;7.22;89.59
38716;BME280;24833;49.324;8.694;2023-01-09T14:36:17;98639.69;;;7.17;89.58
38716;BME280;24833;49.324;8.694;2023-01-09T14:38:53;98646.22;;;7.15;89.64
38716;BME280;24833;49.324;8.694;2023-01-09T14:44:52;98667.44;;;7.08;90.53
38716;BME280;24833;49.324;8.694;2023-01-09T14:50:04;98663.34;;;7.05;90.02
38716;BME280;24833;49.324;8.694;2023-01-09T14:56:18;98670.28;;;7.00;89.85
38716;BME280;24833;49.324;8.694;2023-01-09T14:58:31;98672.13;;;6.99;89.70
38716;BME280;24833;49.324;8.694;2023-01-09T15:03:45;98683.53;;;6.93;89.59
38716;BME280;24833;49.324;8.694;2023-01-09T15:06:26;98683.13;;;6.90;89.66
38716;BME280;24833;49.324;8.694;2023-01-09T15:09:02;98688.00;;;6.86;89.42
38716;BME280;24833;49.324;8.694;2023-01-09T15:11:31;98703.28;;;6.84;89.31
38716;BME280;24833;49.324;8.694;2023-01-09T15:13:59;98705.31;;;6.82;89.10
38716;BME280;24833;49.324;8.694;2023-01-09T15:16:31;98705.50;;;6.80;89.77
38716;BME280;24833;49.324;8.694;2023-01-09T15:19:02;98708.78;;;6.76;89.66
38716;BME280;24833;49.324;8.694;2023-01-09T15:21:30;98708.13;;;6.74;89.68
38716;BME280;24833;49.324;8.694;2023-01-09T15:24:22;98713.66;;;6.72;89.79
38716;BME280;24833;49.324;8.694;2023-01-09T15:26:56;98721.59;;;6.72;89.85
38716;BME280;24833;49.324;8.694;2023-01-09T15:29:24;98718.53;;;6.69;89.49
38716;BME280;24833;49.324;8.694;2023-01-09T15:32:05;98721.38;;;6.67;89.68